Wetterdaten: Woche 02.04.18 - 08.04.18 (KW14)
Datum Zeit Temp. A. Pool Temp. Feuchte A. Luftdruck Regen Wind Richtung Sonnenschein ET UV Solar Taupunkt Windchill Windben Empfang
02.04.2018 00:00 3,7 C 6,7 C 94 % 1012,3 hPa 0,8 l/m 12,5 km/h (3 Bft) W 0,00 h 0,000 mm 0,0 UV-I 0 W/m 2,8 C -0,8 C 17,5 km/h (3 Bft) 97,36 %
02.04.2018 01:00 4,5 C 6,7 C 90 % 1012,5 hPa 0,2 l/m 19,5 km/h (3 Bft) W 0,00 h 0,000 mm 0,0 UV-I 0 W/m 3,0 C -3,6 C 27,4 km/h (4 Bft) 97,46 %
02.04.2018 02:00 4,7 C 6,7 C 89 % 1012,8 hPa 0,0 l/m 18,5 km/h (3 Bft) W-SW 0,00 h 0,025 mm 0,0 UV-I 0 W/m 3,0 C -2,8 C 24,9 km/h (4 Bft) 99,34 %
02.04.2018 03:00 4,8 C 6,7 C 88 % 1013,3 hPa 0,0 l/m 16,6 km/h (3 Bft) W-SW 0,00 h 0,026 mm 0,0 UV-I 0 W/m 3,0 C -1,8 C 22,6 km/h (4 Bft) 97,86 %
02.04.2018 04:00 4,9 C 6,7 C 86 % 1013,4 hPa 0,0 l/m 16,0 km/h (3 Bft) W 0,00 h 0,025 mm 0,0 UV-I 0 W/m 2,8 C -1,5 C 21,7 km/h (4 Bft) 97,55 %
02.04.2018 05:00 4,7 C 6,7 C 86 % 1013,6 hPa 0,0 l/m 12,0 km/h (2 Bft) W-SW 0,00 h 0,026 mm 0,0 UV-I 0 W/m 2,6 C 0,5 C 16,8 km/h (3 Bft) 97,59 %
02.04.2018 06:00 4,7 C 6,7 C 86 % 1013,8 hPa 0,0 l/m 12,4 km/h (3 Bft) W-SW 0,03 h 0,025 mm 0,0 UV-I 9 W/m 2,5 C 0,3 C 17,0 km/h (3 Bft) 98,77 %
02.04.2018 07:00 4,5 C 6,7 C 86 % 1014,0 hPa 0,0 l/m 10,3 km/h (2 Bft) W-SW 0,17 h 0,025 mm 0,0 UV-I 60 W/m 2,3 C 1,4 C 14,5 km/h (3 Bft) 98,62 %
02.04.2018 08:00 5,2 C 6,7 C 84 % 1014,3 hPa 0,0 l/m 8,9 km/h (2 Bft) W-SW 0,37 h 0,026 mm 0,5 UV-I 166 W/m 2,7 C 3,1 C 12,7 km/h (3 Bft) 96,95 %
02.04.2018 09:00 6,4 C 6,7 C 80 % 1014,5 hPa 0,0 l/m 7,0 km/h (2 Bft) W 0,48 h 0,076 mm 0,7 UV-I 260 W/m 3,2 C 5,4 C 10,8 km/h (2 Bft) 96,94 %
02.04.2018 10:00 7,8 C 6,7 C 74 % 1014,6 hPa 0,0 l/m 6,5 km/h (2 Bft) W 0,87 h 0,127 mm 1,6 UV-I 563 W/m 3,5 C 7,0 C 9,5 km/h (2 Bft) 99,03 %
02.04.2018 11:00 8,5 C 6,7 C 71 % 1014,5 hPa 0,0 l/m 5,0 km/h (1 Bft) W 0,73 h 0,254 mm 2,1 UV-I 526 W/m 3,4 C 8,1 C 7,6 km/h (2 Bft) 98,50 %
02.04.2018 12:00 9,6 C 6,7 C 64 % 1013,9 hPa 0,0 l/m 4,3 km/h (1 Bft) SW 1,00 h 0,254 mm 2,8 UV-I 744 W/m 3,3 C 9,4 C 6,7 km/h (2 Bft) 99,31 %
02.04.2018 13:00 11,0 C 6,7 C 59 % 1013,0 hPa 0,0 l/m 5,7 km/h (1 Bft) NW 1,00 h 0,356 mm 3,0 UV-I 737 W/m 3,2 C 10,5 C 8,9 km/h (2 Bft) 98,10 %
02.04.2018 14:00 11,9 C 6,7 C 52 % 1012,2 hPa 0,0 l/m 5,5 km/h (1 Bft) S-SW 1,00 h 0,381 mm 2,6 UV-I 680 W/m 2,3 C 11,5 C 8,8 km/h (2 Bft) 98,75 %
02.04.2018 15:00 13,0 C 6,7 C 48 % 1011,4 hPa 0,0 l/m 6,4 km/h (2 Bft) O 1,00 h 0,355 mm 2,0 UV-I 570 W/m 2,3 C 12,2 C 9,7 km/h (2 Bft) 99,08 %
02.04.2018 16:00 13,4 C 6,7 C 47 % 1010,7 hPa 0,0 l/m 5,8 km/h (2 Bft) O 1,00 h 0,330 mm 1,2 UV-I 426 W/m 2,5 C 13,1 C 9,4 km/h (2 Bft) 98,11 %
02.04.2018 17:00 13,4 C 6,7 C 47 % 1009,9 hPa 0,0 l/m 9,8 km/h (2 Bft) O 0,95 h 0,254 mm 0,6 UV-I 275 W/m 2,2 C 11,4 C 13,5 km/h (3 Bft) 97,01 %
02.04.2018 18:00 12,4 C 6,7 C 56 % 1009,4 hPa 0,0 l/m 11,8 km/h (2 Bft) O 0,73 h 0,204 mm 0,0 UV-I 113 W/m 3,9 C 9,4 C 15,4 km/h (3 Bft) 96,66 %
02.04.2018 19:00 10,6 C 6,7 C 67 % 1009,1 hPa 0,0 l/m 8,2 km/h (2 Bft) O 0,10 h 0,127 mm 0,0 UV-I 18 W/m 4,7 C 9,2 C 11,1 km/h (2 Bft) 99,46 %
02.04.2018 20:00 9,0 C 6,7 C 73 % 1008,9 hPa 0,0 l/m 6,1 km/h (2 Bft) O-NO 0,00 h 0,050 mm 0,0 UV-I 0 W/m 4,5 C 8,7 C 8,7 km/h (2 Bft) 97,83 %
02.04.2018 21:00 8,6 C 6,7 C 72 % 1008,8 hPa 0,0 l/m 5,9 km/h (2 Bft) O 0,00 h 0,026 mm 0,0 UV-I 0 W/m 3,8 C 8,2 C 8,3 km/h (2 Bft) 97,95 %
02.04.2018 22:00 7,7 C 6,7 C 76 % 1008,7 hPa 0,0 l/m 1,6 km/h (1 Bft) O 0,00 h 0,025 mm 0,0 UV-I 0 W/m 3,6 C 7,7 C 2,4 km/h (1 Bft) 96,84 %
02.04.2018 23:00 6,2 C 6,7 C 85 % 1008,5 hPa 0,0 l/m 0,6 km/h (0 Bft) O-SO 0,00 h 0,000 mm 0,0 UV-I 0 W/m 3,9 C 6,2 C 1,0 km/h (0 Bft) 98,60 %
03.04.2018 00:00 5,7 C 6,7 C 86 % 1008,1 hPa 0,0 l/m 1,8 km/h (1 Bft) SW 0,00 h 0,000 mm 0,0 UV-I 0 W/m 3,6 C 5,7 C 2,5 km/h (1 Bft) 98,54 %
03.04.2018 01:00 5,1 C 6,7 C 86 % 1008,0 hPa 0,0 l/m 1,7 km/h (1 Bft) O-SO 0,00 h 0,000 mm 0,0 UV-I 0 W/m 3,0 C 5,1 C 2,5 km/h (1 Bft) 97,01 %
03.04.2018 02:00 4,9 C 6,7 C 86 % 1007,6 hPa 0,0 l/m 4,3 km/h (1 Bft) O 0,00 h 0,000 mm 0,0 UV-I 0 W/m 2,7 C 4,7 C 5,6 km/h (1 Bft) 98,00 %
03.04.2018 03:00 4,2 C 6,7 C 87 % 1007,3 hPa 0,0 l/m 3,1 km/h (1 Bft) O 0,00 h 0,000 mm 0,0 UV-I 0 W/m 2,3 C 4,1 C 4,7 km/h (1 Bft) 98,03 %
03.04.2018 04:00 3,4 C 6,7 C 91 % 1007,3 hPa 0,0 l/m 2,0 km/h (1 Bft) S-SO 0,00 h 0,000 mm 0,0 UV-I 0 W/m 2,0 C 3,4 C 2,7 km/h (1 Bft) 99,08 %
03.04.2018 05:00 2,8 C 6,7 C 93 % 1007,6 hPa 0,0 l/m 0,8 km/h (0 Bft) S-SO 0,00 h 0,000 mm 0,0 UV-I 0 W/m 1,8 C 2,8 C 1,5 km/h (1 Bft) 96,96 %
03.04.2018 06:00 3,6 C 6,7 C 92 % 1008,7 hPa 0,0 l/m 4,2 km/h (1 Bft) S-SW 0,00 h 0,000 mm 0,0 UV-I 7 W/m 2,4 C 3,6 C 5,4 km/h (1 Bft) 97,26 %
03.04.2018 07:00 4,5 C 6,7 C 91 % 1009,4 hPa 0,0 l/m 5,0 km/h (1 Bft) S-SO 0,10 h 0,000 mm 0,0 UV-I 53 W/m 3,1 C 4,2 C 6,7 km/h (2 Bft) 99,43 %
03.04.2018 08:00 6,4 C 6,7 C 86 % 1009,7 hPa 0,0 l/m 3,4 km/h (1 Bft) S-SW 0,65 h 0,025 mm 0,6 UV-I 221 W/m 4,2 C 6,4 C 5,0 km/h (1 Bft) 98,41 %
03.04.2018 09:00 9,7 C 6,7 C 77 % 1009,5 hPa 0,0 l/m 5,8 km/h (2 Bft) O-NO 0,87 h 0,102 mm 0,9 UV-I 364 W/m 5,9 C 9,5 C 7,3 km/h (2 Bft) 96,92 %
03.04.2018 10:00 11,4 C 6,7 C 72 % 1009,4 hPa 0,0 l/m 6,4 km/h (2 Bft) O-NO 0,87 h 0,178 mm 1,6 UV-I 474 W/m 6,5 C 11,0 C 8,9 km/h (2 Bft) 97,03 %
03.04.2018 11:00 14,0 C 6,7 C 66 % 1009,4 hPa 0,0 l/m 8,8 km/h (2 Bft) NO 1,00 h 0,254 mm 2,5 UV-I 674 W/m 7,7 C 12,7 C 11,9 km/h (2 Bft) 98,24 %
03.04.2018 12:00 15,8 C 6,7 C 66 % 1008,8 hPa 0,0 l/m 11,9 km/h (2 Bft) NO 1,00 h 0,381 mm 2,8 UV-I 648 W/m 9,6 C 13,3 C 15,5 km/h (3 Bft) 98,26 %
03.04.2018 13:00 17,6 C 6,7 C 62 % 1008,1 hPa 0,0 l/m 11,8 km/h (2 Bft) NO 1,00 h 0,381 mm 3,0 UV-I 692 W/m 10,2 C 15,4 C 15,5 km/h (3 Bft) 98,97 %
03.04.2018 14:00 18,7 C 6,7 C 51 % 1007,4 hPa 0,0 l/m 13,1 km/h (3 Bft) O-NO 1,00 h 0,432 mm 2,7 UV-I 626 W/m 8,3 C 16,3 C 17,2 km/h (3 Bft) 98,24 %
03.04.2018 15:00 19,5 C 6,7 C 48 % 1006,7 hPa 0,0 l/m 12,8 km/h (3 Bft) O 0,95 h 0,431 mm 2,0 UV-I 513 W/m 8,2 C 17,3 C 16,9 km/h (3 Bft) 98,20 %
03.04.2018 16:00 19,6 C 7,1 C 50 % 1006,2 hPa 0,0 l/m 11,5 km/h (2 Bft) O-NO 0,22 h 0,381 mm 0,9 UV-I 255 W/m 9,0 C 17,8 C 15,3 km/h (3 Bft) 96,01 %
03.04.2018 17:00 19,2 C 7,2 C 55 % 1005,8 hPa 0,0 l/m 6,8 km/h (2 Bft) O-NO 0,00 h 0,229 mm 0,5 UV-I 147 W/m 9,9 C 18,9 C 9,7 km/h (2 Bft) 98,42 %
03.04.2018 18:00 18,3 C 7,2 C 56 % 1005,1 hPa 0,0 l/m 9,9 km/h (2 Bft) O 0,25 h 0,127 mm 0,0 UV-I 80 W/m 9,3 C 16,8 C 13,7 km/h (3 Bft) 97,70 %
03.04.2018 19:00 16,7 C 7,2 C 59 % 1005,3 hPa 0,0 l/m 7,5 km/h (2 Bft) O 0,02 h 0,102 mm 0,0 UV-I 15 W/m 8,5 C 16,0 C 10,5 km/h (2 Bft) 98,23 %
03.04.2018 20:00 15,1 C 7,2 C 63 % 1005,4 hPa 0,0 l/m 9,3 km/h (2 Bft) O-SO 0,00 h 0,050 mm 0,0 UV-I 0 W/m 8,2 C 13,6 C 13,0 km/h (3 Bft) 95,74 %
03.04.2018 21:00 13,6 C 7,2 C 71 % 1005,5 hPa 0,0 l/m 4,6 km/h (1 Bft) SO 0,00 h 0,051 mm 0,0 UV-I 0 W/m 8,4 C 13,2 C 6,7 km/h (2 Bft) 98,91 %
03.04.2018 22:00 12,0 C 7,2 C 78 % 1005,9 hPa 0,0 l/m 2,8 km/h (1 Bft) S-SW 0,00 h 0,026 mm 0,0 UV-I 0 W/m 8,3 C 12,0 C 4,2 km/h (1 Bft) 98,87 %
03.04.2018 23:00 11,0 C 7,2 C 82 % 1006,2 hPa 0,0 l/m 0,9 km/h (0 Bft) S-SW 0,00 h 0,000 mm 0,0 UV-I 0 W/m 8,1 C 11,0 C 1,5 km/h (1 Bft) 96,99 %
04.04.2018 00:00 9,9 C 7,2 C 86 % 1006,3 hPa 0,0 l/m 2,1 km/h (1 Bft) S-SW 0,00 h 0,000 mm 0,0 UV-I 0 W/m 7,7 C 9,9 C 3,2 km/h (1 Bft) 96,56 %
04.04.2018 01:00 9,9 C 7,2 C 86 % 1006,0 hPa 0,0 l/m 1,9 km/h (1 Bft) O-NO 0,00 h 0,000 mm 0,0 UV-I 0 W/m 7,6 C 9,9 C 2,9 km/h (1 Bft) 98,31 %
04.04.2018 02:00 9,9 C 7,2 C 85 % 1005,7 hPa 0,0 l/m 1,1 km/h (1 Bft) O 0,00 h 0,000 mm 0,0 UV-I 0 W/m 7,6 C 9,9 C 2,0 km/h (1 Bft) 99,10 %
04.04.2018 03:00 10,0 C 7,2 C 82 % 1005,5 hPa 0,0 l/m 4,5 km/h (1 Bft) O 0,00 h 0,000 mm 0,0 UV-I 0 W/m 7,0 C 9,9 C 7,1 km/h (2 Bft) 98,14 %
04.04.2018 04:00 8,5 C 7,2 C 87 % 1005,9 hPa 0,0 l/m 3,9 km/h (1 Bft) W-SW 0,00 h 0,025 mm 0,0 UV-I 0 W/m 6,5 C 8,5 C 5,1 km/h (1 Bft) 97,19 %
04.04.2018 05:00 8,3 C 7,2 C 90 % 1006,2 hPa 0,0 l/m 3,7 km/h (1 Bft) S 0,00 h 0,000 mm 0,0 UV-I 0 W/m 6,7 C 8,3 C 5,1 km/h (1 Bft) 97,58 %
04.04.2018 06:00 8,2 C 7,2 C 90 % 1006,0 hPa 0,0 l/m 1,7 km/h (1 Bft) S 0,00 h 0,000 mm 0,0 UV-I 7 W/m 6,7 C 8,2 C 2,9 km/h (1 Bft) 99,03 %
04.04.2018 07:00 8,4 C 7,2 C 91 % 1006,2 hPa 0,0 l/m 1,3 km/h (1 Bft) S 0,00 h 0,000 mm 0,0 UV-I 31 W/m 7,0 C 8,4 C 2,4 km/h (1 Bft) 99,42 %
04.04.2018 08:00 9,6 C 7,2 C 87 % 1006,1 hPa 0,0 l/m 1,5 km/h (1 Bft) O-SO 0,00 h 0,026 mm 0,0 UV-I 101 W/m 7,6 C 9,6 C 2,2 km/h (1 Bft) 96,42 %
04.04.2018 09:00 11,2 C 7,2 C 79 % 1006,0 hPa 0,0 l/m 6,7 km/h (2 Bft) O-NO 0,80 h 0,051 mm 0,8 UV-I 316 W/m 7,6 C 10,6 C 10,2 km/h (2 Bft) 98,03 %
04.04.2018 10:00 13,7 C 7,2 C 74 % 1006,1 hPa 0,0 l/m 6,6 km/h (2 Bft) NO 1,00 h 0,177 mm 1,7 UV-I 557 W/m 9,1 C 13,3 C 9,9 km/h (2 Bft) 98,52 %
04.04.2018 11:00 15,8 C 7,2 C 67 % 1005,6 hPa 0,0 l/m 6,3 km/h (2 Bft) O 1,00 h 0,305 mm 2,6 UV-I 658 W/m 9,7 C 15,4 C 10,3 km/h (2 Bft) 98,38 %
04.04.2018 12:00 17,4 C 7,2 C 61 % 1005,0 hPa 0,0 l/m 5,4 km/h (1 Bft) NO 1,00 h 0,381 mm 3,1 UV-I 701 W/m 9,7 C 17,3 C 9,1 km/h (2 Bft) 99,23 %
04.04.2018 13:00 19,2 C 7,2 C 56 % 1004,3 hPa 0,0 l/m 5,6 km/h (1 Bft) NO 1,00 h 0,407 mm 3,3 UV-I 717 W/m 10,2 C 19,1 C 8,9 km/h (2 Bft) 97,92 %
04.04.2018 14:00 20,7 C 7,2 C 47 % 1003,6 hPa 0,0 l/m 4,3 km/h (1 Bft) NO 1,00 h 0,431 mm 2,8 UV-I 632 W/m 8,9 C 20,6 C 7,1 km/h (2 Bft) 96,92 %
04.04.2018 15:00 21,0 C 7,2 C 44 % 1003,0 hPa 0,0 l/m 7,0 km/h (2 Bft) O-SO 0,67 h 0,407 mm 1,7 UV-I 414 W/m 8,3 C 20,6 C 11,6 km/h (2 Bft) 97,81 %
04.04.2018 16:00 20,7 C 7,2 C 44 % 1002,4 hPa 0,0 l/m 9,8 km/h (2 Bft) O 0,73 h 0,305 mm 1,1 UV-I 340 W/m 8,2 C 19,5 C 14,0 km/h (3 Bft) 98,58 %
04.04.2018 17:00 20,9 C 7,2 C 47 % 1001,9 hPa 0,0 l/m 12,4 km/h (3 Bft) O 1,00 h 0,279 mm 0,7 UV-I 321 W/m 9,2 C 19,0 C 16,7 km/h (3 Bft) 98,84 %
04.04.2018 18:00 19,5 C 7,2 C 56 % 1001,7 hPa 0,0 l/m 12,8 km/h (3 Bft) O 0,90 h 0,279 mm 0,0 UV-I 125 W/m 10,6 C 17,3 C 17,3 km/h (3 Bft) 97,16 %
04.04.2018 19:00 17,4 C 7,2 C 62 % 1002,0 hPa 0,0 l/m 8,3 km/h (2 Bft) O-SO 0,17 h 0,153 mm 0,0 UV-I 17 W/m 10,0 C 16,5 C 11,9 km/h (2 Bft) 97,52 %
04.04.2018 20:00 14,6 C 7,2 C 72 % 1002,8 hPa 0,0 l/m 2,6 km/h (1 Bft) SO 0,00 h 0,051 mm 0,0 UV-I 0 W/m 9,7 C 14,5 C 4,4 km/h (1 Bft) 98,65 %
04.04.2018 21:00 12,7 C 7,2 C 80 % 1004,2 hPa 0,0 l/m 7,4 km/h (2 Bft) S 0,00 h 0,025 mm 0,0 UV-I 0 W/m 9,2 C 11,1 C 12,9 km/h (3 Bft) 98,76 %
04.04.2018 22:00 14,1 C 7,2 C 62 % 1006,5 hPa 0,0 l/m 19,4 km/h (3 Bft) W 0,00 h 0,025 mm 0,0 UV-I 0 W/m 7,0 C 8,9 C 34,2 km/h (5 Bft) 98,23 %
04.04.2018 23:00 12,7 C 7,2 C 65 % 1007,4 hPa 0,0 l/m 12,9 km/h (3 Bft) W 0,00 h 0,102 mm 0,0 UV-I 0 W/m 6,3 C 9,3 C 18,8 km/h (3 Bft) 97,56 %
05.04.2018 00:00 11,2 C 7,2 C 69 % 1007,7 hPa 0,0 l/m 5,9 km/h (2 Bft) S-SW 0,00 h 0,000 mm 0,0 UV-I 0 W/m 5,8 C 10,5 C 9,1 km/h (2 Bft) 98,62 %
05.04.2018 01:00 10,0 C 7,3 C 76 % 1007,4 hPa 0,0 l/m 5,2 km/h (1 Bft) W-SW 0,00 h 0,025 mm 0,0 UV-I 0 W/m 5,9 C 9,9 C 7,3 km/h (2 Bft) 97,18 %
05.04.2018 02:00 9,4 C 7,8 C 77 % 1007,7 hPa 0,0 l/m 6,6 km/h (2 Bft) SW 0,00 h 0,026 mm 0,0 UV-I 0 W/m 5,6 C 9,1 C 8,8 km/h (2 Bft) 97,68 %
05.04.2018 03:00 8,7 C 7,8 C 80 % 1008,1 hPa 0,0 l/m 5,6 km/h (1 Bft) S-SW 0,00 h 0,025 mm 0,0 UV-I 0 W/m 5,4 C 8,6 C 7,6 km/h (2 Bft) 97,03 %
05.04.2018 04:00 8,8 C 7,8 C 80 % 1008,4 hPa 0,0 l/m 5,1 km/h (1 Bft) SW 0,00 h 0,026 mm 0,0 UV-I 0 W/m 5,7 C 8,8 C 6,9 km/h (2 Bft) 99,55 %
05.04.2018 05:00 9,1 C 7,8 C 80 % 1008,8 hPa 0,0 l/m 6,0 km/h (2 Bft) S-SW 0,00 h 0,025 mm 0,0 UV-I 0 W/m 5,9 C 8,8 C 8,6 km/h (2 Bft) 98,05 %
05.04.2018 06:00 8,9 C 7,8 C 80 % 1009,3 hPa 0,0 l/m 5,1 km/h (1 Bft) S-SW 0,00 h 0,025 mm 0,0 UV-I 7 W/m 5,7 C 8,9 C 6,7 km/h (2 Bft) 97,28 %
05.04.2018 07:00 8,9 C 7,8 C 82 % 1010,3 hPa 0,0 l/m 2,5 km/h (1 Bft) S-SW 0,00 h 0,026 mm 0,0 UV-I 24 W/m 6,0 C 8,9 C 3,9 km/h (1 Bft) 97,73 %
05.04.2018 08:00 9,8 C 7,8 C 79 % 1010,8 hPa 0,0 l/m 6,5 km/h (2 Bft) W-SW 0,00 h 0,025 mm 0,0 UV-I 55 W/m 6,3 C 9,1 C 9,7 km/h (2 Bft) 98,26 %
05.04.2018 09:00 11,5 C 7,8 C 72 % 1011,3 hPa 0,0 l/m 11,0 km/h (2 Bft) W-SW 0,33 h 0,051 mm 0,7 UV-I 219 W/m 6,7 C 8,9 C 16,6 km/h (3 Bft) 98,80 %
05.04.2018 10:00 12,4 C 7,8 C 71 % 1011,8 hPa 0,0 l/m 16,2 km/h (3 Bft) SW 0,73 h 0,127 mm 1,5 UV-I 436 W/m 7,3 C 7,6 C 24,0 km/h (4 Bft) 97,61 %
05.04.2018 11:00 12,4 C 7,8 C 71 % 1012,0 hPa 0,0 l/m 19,2 km/h (3 Bft) SW 0,78 h 0,279 mm 2,0 UV-I 491 W/m 7,3 C 6,8 C 28,9 km/h (5 Bft) 96,20 %
05.04.2018 12:00 13,1 C 7,8 C 67 % 1011,7 hPa 0,0 l/m 17,2 km/h (3 Bft) SW 0,70 h 0,305 mm 2,5 UV-I 629 W/m 7,1 C 8,2 C 26,7 km/h (4 Bft) 99,60 %
05.04.2018 13:00 13,8 C 7,8 C 63 % 1011,6 hPa 0,0 l/m 17,8 km/h (3 Bft) W 0,83 h 0,381 mm 2,6 UV-I 615 W/m 6,9 C 8,9 C 26,9 km/h (4 Bft) 98,11 %
05.04.2018 14:00 15,0 C 7,8 C 58 % 1011,4 hPa 0,0 l/m 15,9 km/h (3 Bft) SW 1,00 h 0,381 mm 2,5 UV-I 716 W/m 6,6 C 10,9 C 24,3 km/h (4 Bft) 98,98 %
05.04.2018 15:00 14,2 C 7,8 C 60 % 1011,5 hPa 0,0 l/m 12,1 km/h (2 Bft) W 0,30 h 0,432 mm 1,0 UV-I 279 W/m 6,4 C 11,4 C 18,8 km/h (3 Bft) 97,34 %
05.04.2018 16:00 15,0 C 7,8 C 56 % 1011,4 hPa 0,0 l/m 14,1 km/h (3 Bft) SW 0,87 h 0,203 mm 1,1 UV-I 424 W/m 6,2 C 11,5 C 22,3 km/h (4 Bft) 96,67 %
05.04.2018 17:00 14,8 C 7,8 C 56 % 1011,6 hPa 0,0 l/m 16,7 km/h (3 Bft) W-SW 0,57 h 0,280 mm 0,6 UV-I 262 W/m 6,1 C 10,4 C 25,6 km/h (4 Bft) 98,73 %
05.04.2018 18:00 13,9 C 7,8 C 62 % 1012,3 hPa 0,0 l/m 16,9 km/h (3 Bft) W-SW 0,30 h 0,228 mm 0,0 UV-I 92 W/m 6,6 C 9,2 C 25,3 km/h (4 Bft) 98,37 %
05.04.2018 19:00 13,1 C 7,8 C 59 % 1013,3 hPa 0,0 l/m 14,9 km/h (3 Bft) W 0,00 h 0,127 mm 0,0 UV-I 12 W/m 5,4 C 9,0 C 22,7 km/h (4 Bft) 98,83 %
05.04.2018 20:00 9,7 C 7,8 C 81 % 1015,8 hPa 0,6 l/m 16,1 km/h (3 Bft) W 0,00 h 0,076 mm 0,0 UV-I 0 W/m 6,5 C 4,5 C 27,6 km/h (4 Bft) 96,58 %
05.04.2018 21:00 8,5 C 7,8 C 87 % 1017,3 hPa 0,2 l/m 16,5 km/h (3 Bft) W 0,00 h 0,026 mm 0,0 UV-I 0 W/m 6,5 C 2,8 C 24,7 km/h (4 Bft) 98,84 %
05.04.2018 22:00 8,3 C 7,8 C 85 % 1018,0 hPa 0,2 l/m 14,4 km/h (3 Bft) W 0,00 h 0,025 mm 0,0 UV-I 0 W/m 5,9 C 3,4 C 21,9 km/h (4 Bft) 98,24 %
05.04.2018 23:00 8,3 C 7,8 C 79 % 1019,0 hPa 0,0 l/m 15,7 km/h (3 Bft) W 0,00 h 0,026 mm 0,0 UV-I 0 W/m 5,0 C 2,8 C 22,7 km/h (4 Bft) 97,08 %
06.04.2018 00:00 8,0 C 7,8 C 77 % 1019,9 hPa 0,0 l/m 15,0 km/h (3 Bft) W 0,00 h 0,000 mm 0,0 UV-I 0 W/m 4,2 C 2,8 C 20,4 km/h (4 Bft) 97,64 %
06.04.2018 01:00 7,3 C 8,2 C 77 % 1020,7 hPa 0,0 l/m 12,4 km/h (3 Bft) W-SW 0,00 h 0,025 mm 0,0 UV-I 0 W/m 3,6 C 3,3 C 16,8 km/h (3 Bft) 98,41 %
06.04.2018 02:00 6,5 C 8,3 C 78 % 1020,9 hPa 0,0 l/m 10,0 km/h (2 Bft) W 0,00 h 0,026 mm 0,0 UV-I 0 W/m 2,9 C 3,8 C 13,4 km/h (3 Bft) 99,15 %
06.04.2018 03:00 6,2 C 8,3 C 78 % 1021,2 hPa 0,0 l/m 8,2 km/h (2 Bft) W 0,00 h 0,025 mm 0,0 UV-I 0 W/m 2,6 C 4,6 C 11,4 km/h (2 Bft) 96,39 %
06.04.2018 04:00 5,9 C 8,3 C 79 % 1021,4 hPa 0,0 l/m 5,1 km/h (1 Bft) W-SW 0,00 h 0,026 mm 0,0 UV-I 0 W/m 2,5 C 5,8 C 6,9 km/h (2 Bft) 98,64 %
06.04.2018 05:00 5,4 C 8,3 C 81 % 1021,7 hPa 0,0 l/m 5,6 km/h (1 Bft) W-SW 0,00 h 0,025 mm 0,0 UV-I 0 W/m 2,4 C 5,2 C 7,8 km/h (2 Bft) 98,10 %
06.04.2018 06:00 5,4 C 8,3 C 79 % 1022,1 hPa 0,0 l/m 7,5 km/h (2 Bft) W 0,03 h 0,025 mm 0,0 UV-I 12 W/m 2,1 C 4,3 C 10,5 km/h (2 Bft) 98,74 %
06.04.2018 07:00 5,3 C 8,3 C 81 % 1022,7 hPa 0,0 l/m 2,5 km/h (1 Bft) W 0,52 h 0,026 mm 0,0 UV-I 97 W/m 2,3 C 5,3 C 3,8 km/h (1 Bft) 95,62 %
06.04.2018 08:00 6,4 C 8,3 C 77 % 1023,2 hPa 0,0 l/m 4,2 km/h (1 Bft) W-SW 0,87 h 0,051 mm 0,6 UV-I 272 W/m 2,6 C 6,4 C 6,2 km/h (2 Bft) 99,40 %
06.04.2018 09:00 7,5 C 8,3 C 73 % 1023,2 hPa 0,0 l/m 3,1 km/h (1 Bft) W-NW 0,83 h 0,127 mm 1,0 UV-I 384 W/m 2,8 C 7,4 C 4,8 km/h (1 Bft) 97,58 %
06.04.2018 10:00 8,2 C 8,3 C 67 % 1023,2 hPa 0,0 l/m 2,5 km/h (1 Bft) N-NW 0,55 h 0,177 mm 1,6 UV-I 374 W/m 2,4 C 8,1 C 4,0 km/h (1 Bft) 95,88 %
06.04.2018 11:00 9,9 C 8,3 C 58 % 1023,2 hPa 0,0 l/m 6,4 km/h (2 Bft) N-NO 0,95 h 0,178 mm 2,5 UV-I 721 W/m 2,1 C 9,0 C 9,2 km/h (2 Bft) 98,96 %
06.04.2018 12:00 10,6 C 8,3 C 54 % 1022,9 hPa 0,0 l/m 6,3 km/h (2 Bft) NO 1,00 h 0,330 mm 3,1 UV-I 768 W/m 1,6 C 9,9 C 9,8 km/h (2 Bft) 98,60 %
06.04.2018 13:00 11,4 C 8,3 C 52 % 1022,1 hPa 0,0 l/m 9,6 km/h (2 Bft) O-NO 1,00 h 0,381 mm 3,1 UV-I 751 W/m 1,9 C 9,2 C 13,3 km/h (3 Bft) 98,52 %
06.04.2018 14:00 12,3 C 8,3 C 54 % 1021,3 hPa 0,0 l/m 14,0 km/h (3 Bft) O-NO 1,00 h 0,407 mm 2,7 UV-I 709 W/m 3,2 C 8,4 C 18,7 km/h (3 Bft) 98,99 %
06.04.2018 15:00 12,7 C 8,3 C 51 % 1020,6 hPa 0,0 l/m 15,0 km/h (3 Bft) O-NO 1,00 h 0,406 mm 2,0 UV-I 617 W/m 2,8 C 8,5 C 19,8 km/h (4 Bft) 98,04 %
06.04.2018 16:00 13,0 C 8,3 C 48 % 1019,9 hPa 0,0 l/m 17,7 km/h (3 Bft) O-NO 1,00 h 0,381 mm 1,2 UV-I 449 W/m 2,2 C 7,9 C 22,8 km/h (4 Bft) 98,97 %
06.04.2018 17:00 12,9 C 8,3 C 46 % 1019,5 hPa 0,0 l/m 17,8 km/h (3 Bft) O-NO 0,98 h 0,330 mm 0,6 UV-I 301 W/m 1,6 C 7,8 C 22,9 km/h (4 Bft) 97,68 %
06.04.2018 18:00 12,5 C 8,3 C 49 % 1019,3 hPa 0,0 l/m 17,5 km/h (3 Bft) O 1,00 h 0,254 mm 0,0 UV-I 148 W/m 2,2 C 7,3 C 22,9 km/h (4 Bft) 96,97 %
06.04.2018 19:00 11,2 C 8,3 C 56 % 1019,3 hPa 0,0 l/m 15,4 km/h (3 Bft) O 0,50 h 0,178 mm 0,0 UV-I 26 W/m 2,8 C 6,5 C 20,4 km/h (4 Bft) 97,63 %
06.04.2018 20:00 9,8 C 8,3 C 63 % 1019,7 hPa 0,0 l/m 14,8 km/h (3 Bft) O 0,00 h 0,076 mm 0,0 UV-I 0 W/m 3,2 C 5,1 C 19,8 km/h (4 Bft) 98,77 %
06.04.2018 21:00 9,2 C 8,3 C 65 % 1019,9 hPa 0,0 l/m 19,2 km/h (3 Bft) O 0,00 h 0,051 mm 0,0 UV-I 0 W/m 2,9 C 2,5 C 25,1 km/h (4 Bft) 98,29 %
06.04.2018 22:00 8,4 C 8,4 C 66 % 1019,7 hPa 0,0 l/m 20,1 km/h (4 Bft) O 0,00 h 0,076 mm 0,0 UV-I 0 W/m 2,4 C 1,2 C 25,8 km/h (4 Bft) 96,92 %
06.04.2018 23:00 7,3 C 8,5 C 70 % 1019,5 hPa 0,0 l/m 16,5 km/h (3 Bft) O-NO 0,00 h 0,077 mm 0,0 UV-I 0 W/m 2,2 C 1,3 C 21,2 km/h (4 Bft) 98,00 %
07.04.2018 00:00 6,8 C 8,7 C 71 % 1019,1 hPa 0,0 l/m 16,7 km/h (3 Bft) O-NO 0,00 h 0,000 mm 0,0 UV-I 0 W/m 1,9 C 0,5 C 21,1 km/h (4 Bft) 95,44 %
07.04.2018 01:00 6,6 C 8,8 C 69 % 1018,8 hPa 0,0 l/m 20,1 km/h (4 Bft) O-NO 0,00 h 0,051 mm 0,0 UV-I 0 W/m 1,4 C -1,0 C 25,8 km/h (4 Bft) 98,21 %
07.04.2018 02:00 6,3 C 8,8 C 67 % 1018,2 hPa 0,0 l/m 22,3 km/h (4 Bft) O-NO 0,00 h 0,051 mm 0,0 UV-I 0 W/m 0,7 C -2,3 C 28,9 km/h (5 Bft) 97,04 %
07.04.2018 03:00 5,9 C 8,9 C 67 % 1017,7 hPa 0,0 l/m 23,6 km/h (4 Bft) O-NO 0,00 h 0,076 mm 0,0 UV-I 0 W/m 0,3 C -3,2 C 30,8 km/h (5 Bft) 97,26 %
07.04.2018 04:00 5,3 C 8,8 C 68 % 1017,1 hPa 0,0 l/m 26,6 km/h (4 Bft) O 0,00 h 0,076 mm 0,0 UV-I 0 W/m 0,0 C -4,9 C 35,1 km/h (5 Bft) 98,92 %
07.04.2018 05:00 4,5 C 8,9 C 68 % 1016,8 hPa 0,0 l/m 24,2 km/h (4 Bft) O 0,00 h 0,076 mm 0,0 UV-I 0 W/m -0,8 C -5,3 C 32,0 km/h (5 Bft) 97,98 %
07.04.2018 06:00 4,1 C 8,9 C 68 % 1016,7 hPa 0,0 l/m 20,7 km/h (4 Bft) O 0,07 h 0,076 mm 0,0 UV-I 13 W/m -1,2 C -4,6 C 27,3 km/h (4 Bft) 97,85 %
07.04.2018 07:00 4,3 C 8,9 C 67 % 1016,7 hPa 0,0 l/m 16,3 km/h (3 Bft) O 0,98 h 0,051 mm 0,0 UV-I 127 W/m -1,2 C -2,3 C 22,1 km/h (4 Bft) 96,70 %
07.04.2018 08:00 5,7 C 8,9 C 64 % 1016,6 hPa 0,0 l/m 17,8 km/h (3 Bft) O 1,00 h 0,102 mm 0,6 UV-I 298 W/m -0,6 C -1,3 C 23,4 km/h (4 Bft) 98,91 %
07.04.2018 09:00 7,5 C 8,9 C 60 % 1016,4 hPa 0,0 l/m 19,6 km/h (3 Bft) O 1,00 h 0,178 mm 1,1 UV-I 468 W/m 0,1 C 0,2 C 25,2 km/h (4 Bft) 98,49 %
07.04.2018 10:00 9,6 C 8,9 C 56 % 1016,2 hPa 0,0 l/m 17,1 km/h (3 Bft) O 1,00 h 0,279 mm 1,9 UV-I 600 W/m 1,4 C 3,9 C 21,9 km/h (4 Bft) 95,85 %
07.04.2018 11:00 12,6 C 8,9 C 51 % 1015,9 hPa 0,0 l/m 17,6 km/h (3 Bft) O-NO 1,00 h 0,356 mm 2,6 UV-I 698 W/m 2,7 C 7,5 C 23,0 km/h (4 Bft) 99,21 %
07.04.2018 12:00 14,5 C 8,9 C 50 % 1015,4 hPa 0,0 l/m 20,2 km/h (4 Bft) O-NO 1,00 h 0,431 mm 3,1 UV-I 729 W/m 4,2 C 9,2 C 25,9 km/h (4 Bft) 98,15 %
07.04.2018 13:00 16,3 C 8,9 C 47 % 1014,9 hPa 0,0 l/m 23,2 km/h (4 Bft) O 1,00 h 0,508 mm 3,2 UV-I 763 W/m 5,0 C 10,7 C 30,8 km/h (5 Bft) 98,66 %
07.04.2018 14:00 17,9 C 8,9 C 44 % 1014,4 hPa 0,0 l/m 22,8 km/h (4 Bft) O-NO 1,00 h 0,559 mm 2,8 UV-I 696 W/m 5,5 C 13,0 C 29,7 km/h (5 Bft) 98,69 %
07.04.2018 15:00 19,1 C 8,9 C 40 % 1013,7 hPa 0,0 l/m 24,9 km/h (4 Bft) O-NO 1,00 h 0,559 mm 2,1 UV-I 594 W/m 5,2 C 14,3 C 32,5 km/h (5 Bft) 96,96 %
07.04.2018 16:00 19,5 C 8,9 C 40 % 1013,1 hPa 0,0 l/m 26,4 km/h (4 Bft) O-NO 1,00 h 0,533 mm 1,3 UV-I 463 W/m 5,4 C 14,6 C 34,2 km/h (5 Bft) 97,92 %
07.04.2018 17:00 18,5 C 8,9 C 45 % 1012,8 hPa 0,0 l/m 30,5 km/h (5 Bft) O 1,00 h 0,483 mm 0,7 UV-I 296 W/m 6,3 C 12,6 C 39,8 km/h (6 Bft) 98,27 %
07.04.2018 18:00 16,8 C 8,9 C 50 % 1012,8 hPa 0,0 l/m 29,6 km/h (5 Bft) O 1,00 h 0,381 mm 0,0 UV-I 135 W/m 6,3 C 10,3 C 39,1 km/h (6 Bft) 99,23 %
07.04.2018 19:00 14,6 C 8,9 C 56 % 1012,9 hPa 0,0 l/m 26,7 km/h (4 Bft) O 0,55 h 0,254 mm 0,0 UV-I 26 W/m 5,9 C 7,8 C 34,6 km/h (5 Bft) 97,61 %
07.04.2018 20:00 12,9 C 8,9 C 61 % 1013,2 hPa 0,0 l/m 28,6 km/h (4 Bft) O 0,00 h 0,152 mm 0,0 UV-I 0 W/m 5,6 C 5,1 C 37,6 km/h (5 Bft) 96,91 %
07.04.2018 21:00 11,4 C 8,9 C 67 % 1013,5 hPa 0,0 l/m 30,4 km/h (5 Bft) O-NO 0,00 h 0,127 mm 0,0 UV-I 0 W/m 5,6 C 2,6 C 39,7 km/h (6 Bft) 97,95 %
07.04.2018 22:00 10,0 C 8,9 C 73 % 1013,6 hPa 0,0 l/m 26,9 km/h (4 Bft) O 0,00 h 0,102 mm 0,0 UV-I 0 W/m 5,3 C 1,4 C 35,2 km/h (5 Bft) 99,35 %
07.04.2018 23:00 9,1 C 8,9 C 77 % 1013,1 hPa 0,0 l/m 28,5 km/h (4 Bft) O-NO 0,00 h 0,076 mm 0,0 UV-I 0 W/m 5,2 C -0,2 C 35,8 km/h (5 Bft) 98,16 %
08.04.2018 00:00 8,5 C 8,9 C 79 % 1012,7 hPa 0,0 l/m 22,0 km/h (4 Bft) O 0,00 h 0,000 mm 0,0 UV-I 0 W/m 5,0 C 0,7 C 28,8 km/h (5 Bft) 92,18 %
08.04.2018 01:00 7,9 C 8,9 C 80 % 1012,2 hPa 0,0 l/m 15,9 km/h (3 Bft) O-NO 0,00 h 0,051 mm 0,0 UV-I 0 W/m 4,7 C 2,3 C 21,0 km/h (4 Bft) 97,62 %
08.04.2018 02:00 7,1 C 8,9 C 83 % 1011,6 hPa 0,0 l/m 9,2 km/h (2 Bft) O-NO 0,00 h 0,025 mm 0,0 UV-I 0 W/m 4,4 C 5,0 C 12,4 km/h (3 Bft) 99,22 %
08.04.2018 03:00 6,4 C 8,9 C 85 % 1011,1 hPa 0,0 l/m 4,9 km/h (1 Bft) O-NO 0,00 h 0,026 mm 0,0 UV-I 0 W/m 4,0 C 6,2 C 6,8 km/h (2 Bft) 98,28 %
08.04.2018 04:00 5,3 C 8,9 C 87 % 1010,8 hPa 0,0 l/m 1,4 km/h (1 Bft) O 0,00 h 0,000 mm 0,0 UV-I 0 W/m 3,3 C 5,3 C 2,3 km/h (1 Bft) 96,81 %
08.04.2018 05:00 3,5 C 8,9 C 92 % 1010,6 hPa 0,0 l/m 4,7 km/h (1 Bft) S-SW 0,00 h 0,000 mm 0,0 UV-I 0 W/m 2,3 C 3,5 C 5,7 km/h (1 Bft) 98,58 %
08.04.2018 06:00 3,6 C 8,9 C 93 % 1010,4 hPa 0,0 l/m 1,5 km/h (1 Bft) S-SW 0,35 h 0,000 mm 0,0 UV-I 20 W/m 2,6 C 3,6 C 2,3 km/h (1 Bft) 98,29 %
08.04.2018 07:00 4,4 C 8,9 C 91 % 1010,4 hPa 0,0 l/m 0,8 km/h (0 Bft) SO 1,00 h 0,000 mm 0,0 UV-I 119 W/m 3,2 C 4,4 C 1,6 km/h (1 Bft) 98,52 %
08.04.2018 08:00 7,3 C 8,9 C 85 % 1010,6 hPa 0,0 l/m 1,0 km/h (0 Bft) O-SO 1,00 h 0,050 mm 0,6 UV-I 282 W/m 4,9 C 7,3 C 1,7 km/h (1 Bft) 97,49 %
08.04.2018 09:00 9,8 C 8,9 C 76 % 1010,5 hPa 0,0 l/m 4,4 km/h (1 Bft) O 1,00 h 0,127 mm 1,1 UV-I 450 W/m 5,8 C 9,7 C 6,6 km/h (2 Bft) 98,90 %
08.04.2018 10:00 11,3 C 8,9 C 71 % 1010,2 hPa 0,0 l/m 6,7 km/h (2 Bft) O-NO 1,00 h 0,229 mm 1,9 UV-I 593 W/m 6,2 C 10,7 C 9,6 km/h (2 Bft) 98,19 %
08.04.2018 11:00 13,2 C 8,9 C 66 % 1009,9 hPa 0,0 l/m 4,9 km/h (1 Bft) O-NO 1,00 h 0,305 mm 2,8 UV-I 693 W/m 7,0 C 13,1 C 7,4 km/h (2 Bft) 96,89 %
08.04.2018 12:00 15,2 C 8,9 C 61 % 1009,4 hPa 0,0 l/m 5,7 km/h (1 Bft) NO 1,00 h 0,355 mm 3,4 UV-I 738 W/m 7,8 C 15,0 C 8,6 km/h (2 Bft) 96,59 %
08.04.2018 13:00 17,2 C 8,9 C 56 % 1008,9 hPa 0,0 l/m 6,4 km/h (2 Bft) NO 1,00 h 0,407 mm 3,5 UV-I 741 W/m 8,2 C 16,8 C 9,7 km/h (2 Bft) 96,86 %
08.04.2018 14:00 19,0 C 8,9 C 48 % 1008,3 hPa 0,0 l/m 6,4 km/h (2 Bft) NO 1,00 h 0,432 mm 3,1 UV-I 693 W/m 7,8 C 18,6 C 9,5 km/h (2 Bft) 99,66 %
08.04.2018 15:00 20,1 C 8,9 C 45 % 1007,8 hPa 0,0 l/m 7,1 km/h (2 Bft) NO 1,00 h 0,431 mm 2,3 UV-I 596 W/m 7,8 C 19,6 C 9,9 km/h (2 Bft) 98,14 %
08.04.2018 16:00 20,4 C 8,9 C 42 % 1007,3 hPa 0,0 l/m 9,4 km/h (2 Bft) O-NO 1,00 h 0,407 mm 1,4 UV-I 464 W/m 7,2 C 19,3 C 13,3 km/h (3 Bft) 99,64 %
08.04.2018 17:00 20,4 C 8,9 C 44 % 1006,8 hPa 0,0 l/m 8,9 km/h (2 Bft) O-NO 1,00 h 0,355 mm 0,7 UV-I 298 W/m 7,7 C 19,5 C 12,9 km/h (3 Bft) 96,68 %
08.04.2018 18:00 19,8 C 8,9 C 48 % 1006,4 hPa 0,0 l/m 7,5 km/h (2 Bft) O-NO 1,00 h 0,254 mm 0,0 UV-I 136 W/m 8,5 C 19,2 C 10,3 km/h (2 Bft) 97,53 %
08.04.2018 19:00 17,5 C 8,9 C 55 % 1006,0 hPa 0,0 l/m 3,6 km/h (1 Bft) O-NO 0,57 h 0,127 mm 0,0 UV-I 27 W/m 8,3 C 17,5 C 4,8 km/h (1 Bft) 97,77 %
08.04.2018 20:00 13,7 C 8,9 C 69 % 1006,2 hPa 0,0 l/m 3,1 km/h (1 Bft) S-SO 0,00 h 0,051 mm 0,0 UV-I 0 W/m 8,1 C 13,7 C 4,2 km/h (1 Bft) 99,15 %
08.04.2018 21:00 12,5 C 8,9 C 73 % 1006,4 hPa 0,0 l/m 4,7 km/h (1 Bft) S-SW 0,00 h 0,026 mm 0,0 UV-I 0 W/m 7,8 C 12,5 C 5,9 km/h (2 Bft) 97,72 %
08.04.2018 22:00 11,8 C 8,9 C 78 % 1006,5 hPa 0,0 l/m 4,9 km/h (1 Bft) S-SW 0,00 h 0,025 mm 0,0 UV-I 0 W/m 8,1 C 11,8 C 6,1 km/h (2 Bft) 97,21 %
08.04.2018 23:00 11,0 C 8,9 C 83 % 1006,5 hPa 0,0 l/m 3,3 km/h (1 Bft) S 0,00 h 0,025 mm 0,0 UV-I 0 W/m 8,1 C 11,0 C 4,3 km/h (1 Bft) 98,28 %
Min-Datum _ 03.04.18 02.04.18 07.04.18 04.04.18 - 02.04.18 - - - - - 07.04.18 07.04.18 02.04.18 08.04.18
_ Min-Zeit 05:17 00:00 16:28 18:16 - 22:47 - - - - - 06:42 05:36 22:47 00:02
Minimum _ 2,7 C 6,7 C 36 % 1001,6 hPa - 0,0 km/h (0 Bft) - - - - - -1,4 C -7,8 C 0,0 km/h (0 Bft) 6,25 %
Max-Datum _ 04.04.18 06.04.18 02.04.18 06.04.18 02.04.18 07.04.18 - 07.04.18 07.04.18 08.04.18 05.04.18 04.04.18 04.04.18 04.04.18 02.04.18
_ Max-Zeit 15:06 21:25 00:23 08:27 00:00 18:34 - 13:11 14:00 12:45 12:38 13:38 15:02 22:20 00:00
Maximum _ 21,4 C 8,9 C 95 % 1023,3 hPa 0,8 l/m 40,6 km/h
O (6 Bft)
- 0,10 h 0,559 mm 3,5 UV-I 889 W/m 12,0 C 21,3 C 57,9 km/h
W (7 Bft)
100,00 %
Durchschnitt _ 10,9 C 7,8 C 69 % 1011,6 hPa #2,0 l/m 10,6 km/h (2 Bft) O #69:47 h #25,629 mm 1,8 UV-I 372 W/m 5,1 C 8,3 C 14,7 km/h (3 Bft) 97,95 %